Terminal Aerodrome Forecast
Issued by NWS

Current Version | Previous Version | Text Only | Print | Product List | Glossary On
Versions: 1 2 3 4 5 6 7 8 9 10 11 12 13 14
000
FTUS42 TJSJ 280027 CCA
TAFISX
TAF COR
TISX 280027Z 2800/2824 09025G33KT P6SM VCTS SCT015CB BKN022 OVC050
      TEMPO 2800/2804 VRB30G45KT 3SM TSRA BKN022CB BKN040
     FM281330 11015G21KT P6SM VCTS BKN030CB
     FM282300 18010G18KT P6SM VCTS SCT025CB SCT050=

USA.gov is the U.S. government's official web portal to all federal, state and local government web resources and services.